createdAt,value
2023-04-24T00:01:38.181Z,14.40
2023-04-24T00:04:07.452Z,15.40
2023-04-24T00:06:35.756Z,11.67
2023-04-24T00:09:04.351Z,18.97
2023-04-24T00:11:33.794Z,12.97
2023-04-24T00:14:02.347Z,17.03
2023-04-24T00:16:30.846Z,19.73
2023-04-24T00:18:59.229Z,16.07
2023-04-24T00:21:28.111Z,14.17
2023-04-24T00:23:56.392Z,14.50
2023-04-24T00:26:25.153Z,14.20
2023-04-24T00:28:54.634Z,13.07
2023-04-24T00:31:23.316Z,14.93
2023-04-24T00:33:51.554Z,16.37
2023-04-24T00:36:20.570Z,14.33
2023-04-24T00:38:48.992Z,15.43
2023-04-24T00:41:17.445Z,14.87
2023-04-24T00:43:45.750Z,13.90
2023-04-24T00:46:16.179Z,15.07
2023-04-24T00:48:45.588Z,16.30
2023-04-24T00:51:14.046Z,14.03
2023-04-24T00:53:42.173Z,18.37
2023-04-24T00:56:10.596Z,15.00
2023-04-24T00:58:39.404Z,15.70
2023-04-24T01:01:08.663Z,14.43
2023-04-24T01:03:39.163Z,14.77
2023-04-24T01:06:07.878Z,18.23
2023-04-24T01:08:38.082Z,17.77
2023-04-24T01:11:06.922Z,25.33
2023-04-24T01:13:36.319Z,20.60
2023-04-24T01:16:05.057Z,17.47
2023-04-24T01:18:33.314Z,18.60
2023-04-24T01:21:06.063Z,16.50
2023-04-24T01:23:35.854Z,14.07
2023-04-24T01:26:04.187Z,12.77
2023-04-24T01:28:32.929Z,20.20
2023-04-24T01:31:01.667Z,13.57
2023-04-24T01:33:30.024Z,14.40
2023-04-24T01:35:58.599Z,16.70
2023-04-24T01:38:26.815Z,15.77
2023-04-24T01:40:56.436Z,17.83
2023-04-24T01:43:27.083Z,17.10
2023-04-24T01:45:55.236Z,19.37
2023-04-24T01:48:23.718Z,16.40
2023-04-24T01:50:51.803Z,18.93
2023-04-24T01:53:20.162Z,27.20
2023-04-24T01:55:48.916Z,21.93
2023-04-24T01:58:18.650Z,19.07
2023-04-24T02:00:47.049Z,18.97
2023-04-24T02:03:16.430Z,17.33
2023-04-24T02:05:46.571Z,16.23
2023-04-24T02:08:14.680Z,18.33
2023-04-24T02:10:43.032Z,22.33
2023-04-24T02:13:11.506Z,18.50
2023-04-24T02:15:41.094Z,15.83
2023-04-24T02:18:09.525Z,16.63
2023-04-24T02:20:37.965Z,16.73
2023-04-24T02:23:06.139Z,20.20
2023-04-24T02:25:35.371Z,18.63
2023-04-24T02:28:03.978Z,17.43
2023-04-24T02:30:32.389Z,21.63
2023-04-24T02:33:01.801Z,19.43
2023-04-24T02:35:30.293Z,19.03
2023-04-24T02:37:58.748Z,19.13
2023-04-24T02:40:26.789Z,22.87
2023-04-24T02:42:54.945Z,18.63
2023-04-24T02:45:23.112Z,19.63
2023-04-24T02:47:51.251Z,17.70
2023-04-24T02:50:20.775Z,19.30
2023-04-24T02:52:48.932Z,17.83
2023-04-24T02:55:17.137Z,23.17
2023-04-24T02:57:45.336Z,20.20
2023-04-24T03:00:14.603Z,24.90
2023-04-24T03:02:43.147Z,17.60
2023-04-24T03:05:12.953Z,20.03
2023-04-24T03:07:42.801Z,24.83
2023-04-24T03:10:11.734Z,18.57
2023-04-24T03:12:40.067Z,22.37
2023-04-24T03:15:09.604Z,27.87
2023-04-24T03:17:39.306Z,24.90
2023-04-24T03:20:10.026Z,26.73
2023-04-24T03:22:38.617Z,26.60
2023-04-24T03:25:11.425Z,22.43
2023-04-24T03:27:40.308Z,19.90
2023-04-24T03:30:28.690Z,20.80
2023-04-24T03:33:00.835Z,22.37
2023-04-24T03:35:32.270Z,28.13
2023-04-24T03:38:05.265Z,23.70
2023-04-24T03:40:53.786Z,24.93
2023-04-24T03:43:51.216Z,22.13
2023-04-24T03:46:19.758Z,23.43
2023-04-24T03:48:54.952Z,21.97
2023-04-24T03:51:29.218Z,21.30
2023-04-24T03:54:02.464Z,20.47
2023-04-24T03:56:33.850Z,21.47
2023-04-24T03:59:03.676Z,27.37
2023-04-24T04:01:32.896Z,25.43
2023-04-24T04:04:06.088Z,21.83
2023-04-24T04:06:35.045Z,23.80
2023-04-24T04:09:04.154Z,21.27
2023-04-24T04:11:33.860Z,21.17
2023-04-24T04:14:02.149Z,21.17
2023-04-24T04:16:30.994Z,24.07
2023-04-24T04:19:05.024Z,23.30
2023-04-24T04:21:33.330Z,31.90
2023-04-24T04:24:27.583Z,24.13
2023-04-24T04:26:59.146Z,36.57
2023-04-24T04:29:32.416Z,22.17
2023-04-24T04:32:01.263Z,43.37
2023-04-24T04:34:30.813Z,29.80
2023-04-24T04:37:02.240Z,26.57
2023-04-24T04:39:47.374Z,25.60
2023-04-24T04:42:24.772Z,20.47
2023-04-24T04:44:53.290Z,26.33
2023-04-24T04:47:29.654Z,27.70
2023-04-24T04:49:58.995Z,22.70
2023-04-24T04:52:29.410Z,18.03
2023-04-24T04:55:07.516Z,18.67
2023-04-24T04:58:06.194Z,14.87
2023-04-24T05:00:36.858Z,16.13
2023-04-24T05:03:20.902Z,18.17
2023-04-24T05:05:54.645Z,15.90
2023-04-24T05:08:27.431Z,14.70
2023-04-24T05:10:57.153Z,15.57
2023-04-24T05:13:39.074Z,14.17
2023-04-24T05:16:12.521Z,17.80
2023-04-24T05:18:41.293Z,12.90
2023-04-24T05:21:12.013Z,16.67
2023-04-24T05:23:42.686Z,16.37
2023-04-24T05:26:13.490Z,14.40
2023-04-24T05:28:44.403Z,13.73
2023-04-24T05:31:14.584Z,16.07
2023-04-24T05:33:43.154Z,17.63
2023-04-24T05:36:12.896Z,11.30
2023-04-24T05:38:42.066Z,18.43
2023-04-24T05:41:10.466Z,10.77
2023-04-24T05:43:40.660Z,14.20
2023-04-24T05:46:10.366Z,20.07
2023-04-24T05:48:38.492Z,15.70
2023-04-24T05:51:06.751Z,12.63
2023-04-24T05:53:35.583Z,13.10
2023-04-24T05:56:03.981Z,15.37
2023-04-24T05:58:33.008Z,16.77
2023-04-24T06:01:02.676Z,13.80
2023-04-24T06:03:32.719Z,15.23
2023-04-24T06:06:01.237Z,16.27
2023-04-24T06:08:29.350Z,14.13
2023-04-24T06:10:58.232Z,12.87
2023-04-24T06:13:27.528Z,14.10
2023-04-24T06:16:16.768Z,14.20
2023-04-24T06:18:51.586Z,12.00
2023-04-24T06:21:21.098Z,18.07
2023-04-24T06:23:52.532Z,21.03
2023-04-24T06:26:21.106Z,18.67
2023-04-24T06:28:49.374Z,20.67
2023-04-24T06:31:17.732Z,22.63
2023-04-24T06:33:45.899Z,17.57
2023-04-24T06:36:15.617Z,19.80
2023-04-24T06:38:43.764Z,18.73
2023-04-24T06:41:14.053Z,15.30
2023-04-24T06:43:42.608Z,15.83
2023-04-24T06:46:10.906Z,12.90
2023-04-24T06:48:39.288Z,12.23
2023-04-24T06:51:07.548Z,14.70
2023-04-24T06:53:37.403Z,14.40
2023-04-24T06:56:06.283Z,11.50
2023-04-24T06:58:35.023Z,11.90
2023-04-24T07:01:03.192Z,14.57
2023-04-24T07:03:31.747Z,9.60
2023-04-24T07:06:00.243Z,16.87
2023-04-24T07:08:29.494Z,12.80
2023-04-24T07:10:59.622Z,15.07
2023-04-24T07:13:28.337Z,16.10
2023-04-24T07:15:57.377Z,12.97
2023-04-24T07:18:25.656Z,15.40
2023-04-24T07:20:53.649Z,15.53
2023-04-24T07:23:22.349Z,13.07
2023-04-24T07:25:58.570Z,12.07
2023-04-24T07:28:32.124Z,15.40
2023-04-24T07:31:00.925Z,17.97
2023-04-24T07:33:29.393Z,17.27
2023-04-24T07:35:57.600Z,17.67
2023-04-24T07:38:26.905Z,13.90
2023-04-24T07:40:55.425Z,15.30
2023-04-24T07:43:24.685Z,11.70
2023-04-24T07:45:54.475Z,14.10
2023-04-24T07:48:23.272Z,12.00
2023-04-24T07:50:51.481Z,20.03
2023-04-24T07:53:19.677Z,10.90
2023-04-24T07:55:48.812Z,10.10
2023-04-24T07:58:17.374Z,13.37
2023-04-24T08:00:45.922Z,12.20
2023-04-24T08:03:19.485Z,12.07
2023-04-24T08:05:48.169Z,11.43
2023-04-24T08:08:16.726Z,12.50
2023-04-24T08:10:44.986Z,14.90
2023-04-24T08:13:13.511Z,17.67
2023-04-24T08:15:41.754Z,14.30
2023-04-24T08:18:12.991Z,17.47
2023-04-24T08:20:42.656Z,10.57
2023-04-24T08:23:11.067Z,13.10
2023-04-24T08:25:39.322Z,13.93
2023-04-24T08:28:08.925Z,13.23
2023-04-24T08:30:37.295Z,19.70
2023-04-24T08:33:05.687Z,23.42
2023-04-24T08:35:34.266Z,9.70
2023-04-24T08:38:04.167Z,10.60
2023-04-24T08:40:36.399Z,13.40
2023-04-24T08:43:06.368Z,12.75
2023-04-24T08:45:35.561Z,16.70
2023-04-24T08:48:05.868Z,14.10
2023-04-24T08:50:36.691Z,14.02
2023-04-24T08:53:09.730Z,13.30
2023-04-24T08:55:39.292Z,11.37
2023-04-24T08:58:07.885Z,21.37
2023-04-24T09:00:36.512Z,11.93
2023-04-24T09:03:07.246Z,12.10
2023-04-24T09:05:36.271Z,14.93
2023-04-24T09:08:06.557Z,16.10
2023-04-24T09:10:37.805Z,13.23
2023-04-24T09:13:06.077Z,11.67
2023-04-24T09:15:36.891Z,22.20
2023-04-24T09:18:05.471Z,13.37
2023-04-24T09:20:34.336Z,13.87
2023-04-24T09:23:02.616Z,13.50
2023-04-24T09:25:37.032Z,10.93
2023-04-24T09:28:06.936Z,14.60
2023-04-24T09:30:35.182Z,11.67
2023-04-24T09:33:12.722Z,13.40
2023-04-24T09:35:44.338Z,10.48
2023-04-24T09:38:12.905Z,13.50
2023-04-24T09:40:42.503Z,10.47
2023-04-24T09:43:13.549Z,9.20
2023-04-24T09:45:43.274Z,9.20
2023-04-24T09:48:12.355Z,10.73
2023-04-24T09:50:41.275Z,9.30
2023-04-24T09:53:10.028Z,12.82
2023-04-24T09:55:49.556Z,11.18
2023-04-24T09:58:17.856Z,12.82
2023-04-24T10:00:48.358Z,10.50
2023-04-24T10:03:17.147Z,9.40
2023-04-24T10:05:48.199Z,15.80
2023-04-24T10:08:16.474Z,8.85
2023-04-24T10:10:48.079Z,8.30
2023-04-24T10:13:17.314Z,9.52
2023-04-24T10:15:46.001Z,7.20
2023-04-24T10:18:14.435Z,9.25
2023-04-24T10:20:43.092Z,12.60
2023-04-24T10:23:11.910Z,13.13
2023-04-24T10:25:40.159Z,8.30
2023-04-24T10:28:11.250Z,11.20
2023-04-24T10:30:40.187Z,5.22
2023-04-24T10:33:10.617Z,9.02
2023-04-24T10:35:42.688Z,12.00
2023-04-24T10:38:15.140Z,5.47
2023-04-24T10:40:44.875Z,8.85
2023-04-24T10:43:19.571Z,8.13
2023-04-24T10:46:03.874Z,5.43
2023-04-24T10:48:33.409Z,10.48
2023-04-24T10:51:01.763Z,4.82
2023-04-24T10:53:31.850Z,8.15
2023-04-24T10:56:01.563Z,6.45
2023-04-24T10:58:41.392Z,6.43
2023-04-24T11:01:09.774Z,7.90
2023-04-24T11:03:38.953Z,6.38
2023-04-24T11:06:08.896Z,10.27
2023-04-24T11:08:41.920Z,12.65
2023-04-24T11:11:14.718Z,6.45
2023-04-24T11:14:09.123Z,10.75
2023-04-24T11:16:41.718Z,6.38
2023-04-24T11:19:12.256Z,8.57
2023-04-24T11:21:45.602Z,5.95
2023-04-24T11:24:34.948Z,7.47
2023-04-24T11:27:10.044Z,7.65
2023-04-24T11:29:45.094Z,9.30
2023-04-24T11:32:20.403Z,6.82
2023-04-24T11:34:49.880Z,7.57
2023-04-24T11:37:18.276Z,6.03
2023-04-24T11:39:46.433Z,9.02
2023-04-24T11:42:17.245Z,7.15
2023-04-24T11:44:48.737Z,9.05
2023-04-24T11:47:17.019Z,7.00
2023-04-24T11:49:45.166Z,6.75
2023-04-24T11:52:17.396Z,7.15
2023-04-24T11:54:50.659Z,8.77
2023-04-24T11:57:22.800Z,6.30
2023-04-24T11:59:52.723Z,6.55
2023-04-24T12:02:28.384Z,8.20
2023-04-24T12:04:57.917Z,7.95
2023-04-24T12:07:26.603Z,7.00
2023-04-24T12:10:00.549Z,5.97
2023-04-24T12:12:30.331Z,7.82
2023-04-24T12:15:01.225Z,8.35
2023-04-24T12:17:32.091Z,7.53
2023-04-24T12:20:03.282Z,6.57
2023-04-24T12:22:46.628Z,8.90
2023-04-24T12:25:15.684Z,7.60
2023-04-24T12:27:43.934Z,9.00
2023-04-24T12:30:16.300Z,8.05
2023-04-24T12:32:47.995Z,7.43
2023-04-24T12:35:22.111Z,10.95
2023-04-24T12:37:52.637Z,5.13
2023-04-24T12:40:22.653Z,5.57
2023-04-24T12:42:52.478Z,9.02
2023-04-24T12:45:24.384Z,5.68
2023-04-24T12:47:52.834Z,8.57
2023-04-24T12:50:21.740Z,8.63
2023-04-24T12:52:50.148Z,12.57
2023-04-24T12:55:18.465Z,7.95
2023-04-24T12:57:46.751Z,7.35
2023-04-24T13:00:16.459Z,6.40
2023-04-24T13:02:47.757Z,8.82
2023-04-24T13:05:16.583Z,15.45
2023-04-24T13:07:44.972Z,24.70
2023-04-24T13:10:14.324Z,12.43
2023-04-24T13:12:46.350Z,12.75
2023-04-24T13:15:15.028Z,10.03
2023-04-24T13:17:43.280Z,5.93
2023-04-24T13:20:13.092Z,4.37
2023-04-24T13:22:41.309Z,9.50
2023-04-24T13:25:10.308Z,6.73
2023-04-24T13:27:40.117Z,4.67
2023-04-24T13:30:09.561Z,6.20
2023-04-24T13:32:37.788Z,4.53
2023-04-24T13:35:06.666Z,5.03
2023-04-24T13:37:36.368Z,7.27
2023-04-24T13:40:07.270Z,8.80
2023-04-24T13:42:36.058Z,5.30
2023-04-24T13:45:23.409Z,7.23
2023-04-24T13:47:53.511Z,6.97
2023-04-24T13:50:22.001Z,3.43
2023-04-24T13:52:51.542Z,3.43
2023-04-24T13:55:20.101Z,4.30
2023-04-24T13:57:49.281Z,5.27
2023-04-24T14:00:19.632Z,5.30
2023-04-24T14:02:49.819Z,4.67
2023-04-24T14:05:19.363Z,6.47
2023-04-24T14:07:47.509Z,4.77
2023-04-24T14:10:17.159Z,6.23
2023-04-24T14:12:45.469Z,9.63
2023-04-24T14:15:14.598Z,7.57
2023-04-24T14:17:42.926Z,4.43
2023-04-24T14:20:11.845Z,3.63
2023-04-24T14:22:39.998Z,4.93
2023-04-24T14:25:09.340Z,6.23
2023-04-24T14:27:39.023Z,9.23
2023-04-24T14:30:09.641Z,7.63
2023-04-24T14:32:38.037Z,4.28
2023-04-24T14:35:07.290Z,3.85
2023-04-24T14:37:35.694Z,3.95
2023-04-24T14:40:20.594Z,7.80
2023-04-24T14:42:55.212Z,6.25
2023-04-24T14:45:23.785Z,4.55
2023-04-24T14:47:52.119Z,5.72
2023-04-24T14:50:22.259Z,5.97
2023-04-24T14:52:51.986Z,4.75
2023-04-24T14:55:20.104Z,4.95
2023-04-24T14:57:48.769Z,8.80
2023-04-24T15:00:21.220Z,3.95
2023-04-24T15:02:49.545Z,4.30
2023-04-24T15:05:18.275Z,3.60
2023-04-24T15:07:46.897Z,6.78
2023-04-24T15:10:14.934Z,5.82
2023-04-24T15:12:43.289Z,5.00
2023-04-24T15:15:11.993Z,12.75
2023-04-24T15:17:41.870Z,4.10
2023-04-24T15:20:11.101Z,6.22
2023-04-24T15:22:39.340Z,5.53
2023-04-24T15:25:08.612Z,6.40
2023-04-24T15:27:44.164Z,5.30
2023-04-24T15:30:13.315Z,7.45
2023-04-24T15:32:43.137Z,3.33
2023-04-24T15:35:12.440Z,6.63
2023-04-24T15:37:40.943Z,4.20
2023-04-24T15:40:12.165Z,14.10
2023-04-24T15:42:40.984Z,25.60
2023-04-24T15:45:10.345Z,12.27
2023-04-24T15:47:38.630Z,5.32
2023-04-24T15:50:12.770Z,8.18
2023-04-24T15:52:42.364Z,5.68
2023-04-24T15:55:17.634Z,5.72
2023-04-24T15:57:46.393Z,5.90
2023-04-24T16:00:15.583Z,6.90
2023-04-24T16:03:53.743Z,7.13
2023-04-24T16:10:03.225Z,10.95
2023-04-24T16:12:31.446Z,6.57
2023-04-24T16:14:59.714Z,5.05
2023-04-24T16:17:28.148Z,7.05
2023-04-24T16:19:56.387Z,8.18
2023-04-24T16:22:24.490Z,8.98
2023-04-24T16:24:52.585Z,10.82
2023-04-24T16:27:22.161Z,6.95
2023-04-24T16:29:58.116Z,4.97
2023-04-24T16:32:26.565Z,7.85
2023-04-24T16:34:57.631Z,4.65
2023-04-24T16:37:26.292Z,4.27
2023-04-24T16:39:55.195Z,14.77
2023-04-24T16:42:25.080Z,7.70
2023-04-24T16:45:02.988Z,9.50
2023-04-24T16:47:45.375Z,11.33
2023-04-24T16:50:35.929Z,10.27
2023-04-24T16:53:05.439Z,17.83
2023-04-24T16:55:33.824Z,7.47
2023-04-24T16:58:03.669Z,9.83
2023-04-24T17:00:31.754Z,12.57
2023-04-24T17:03:00.481Z,32.10
2023-04-24T17:05:28.894Z,17.73
2023-04-24T17:07:59.996Z,18.50
2023-04-24T17:10:29.017Z,7.93
2023-04-24T17:12:57.425Z,8.47
2023-04-24T17:15:27.109Z,5.30
2023-04-24T17:17:55.371Z,7.77
2023-04-24T17:20:24.330Z,8.00
2023-04-24T17:22:52.749Z,7.40
2023-04-24T17:25:21.472Z,19.27
2023-04-24T17:27:49.735Z,11.80
2023-04-24T17:30:18.294Z,11.90
2023-04-24T17:32:48.157Z,22.07
2023-04-24T17:35:16.739Z,30.00
2023-04-24T17:37:45.114Z,41.53
2023-04-24T17:40:14.392Z,10.83
2023-04-24T17:42:42.838Z,14.77
2023-04-24T17:45:12.251Z,11.80
2023-04-24T17:47:41.222Z,15.50
2023-04-24T17:50:36.561Z,17.93
2023-04-24T17:53:08.163Z,14.63
2023-04-24T17:55:36.800Z,23.40
2023-04-24T17:58:05.400Z,30.70
2023-04-24T18:00:35.244Z,45.57
2023-04-24T18:03:04.479Z,48.40
2023-04-24T18:05:35.897Z,30.17
2023-04-24T18:08:04.686Z,28.57
2023-04-24T18:10:35.405Z,27.77
2023-04-24T18:13:03.797Z,28.70
2023-04-24T18:15:32.432Z,18.33
2023-04-24T18:18:00.808Z,15.47
2023-04-24T18:20:31.313Z,13.83
2023-04-24T18:23:03.364Z,11.53
2023-04-24T18:25:31.869Z,12.07
2023-04-24T18:28:00.298Z,12.00
2023-04-24T18:30:31.156Z,16.43
2023-04-24T18:33:01.295Z,16.60
2023-04-24T18:35:29.646Z,13.50
2023-04-24T18:37:57.761Z,13.33
2023-04-24T18:40:27.833Z,13.20
2023-04-24T18:42:57.427Z,12.77
2023-04-24T18:45:26.423Z,11.53
2023-04-24T18:47:54.771Z,20.20
2023-04-24T18:50:23.278Z,19.03
2023-04-24T18:52:51.470Z,14.80
2023-04-24T18:55:19.804Z,17.73
2023-04-24T18:57:49.365Z,15.43
2023-04-24T19:00:18.106Z,15.13
2023-04-24T19:02:50.081Z,17.50
2023-04-24T19:06:06.078Z,18.00
2023-04-24T19:09:07.837Z,20.30
2023-04-24T19:12:23.142Z,18.90
2023-04-24T19:18:10.439Z,23.10
2023-04-24T19:20:38.520Z,20.73
2023-04-24T19:23:06.644Z,23.67
2023-04-24T19:25:34.734Z,24.27
2023-04-24T19:28:03.475Z,20.53
2023-04-24T19:30:47.107Z,20.03
2023-04-24T19:33:19.288Z,20.27
2023-04-24T19:35:47.350Z,24.03
2023-04-24T19:38:15.423Z,24.87
2023-04-24T19:40:43.666Z,25.10
2023-04-24T19:43:11.775Z,15.97
2023-04-24T19:45:41.204Z,16.50
2023-04-24T19:48:09.297Z,11.43
2023-04-24T19:50:37.910Z,8.70
2023-04-24T19:53:06.493Z,10.97
2023-04-24T19:55:39.081Z,9.63
2023-04-24T19:58:13.136Z,8.60
2023-04-24T20:00:44.127Z,11.53
2023-04-24T20:03:21.695Z,15.37
2023-04-24T20:05:59.770Z,9.77
2023-04-24T20:08:27.892Z,8.80
2023-04-24T20:10:57.874Z,8.47
2023-04-24T20:13:42.942Z,12.03
2023-04-24T20:16:27.647Z,11.13
2023-04-24T20:18:56.496Z,10.83
2023-04-24T20:21:24.728Z,12.23
2023-04-24T20:23:52.993Z,12.10
2023-04-24T20:26:38.947Z,13.23
2023-04-24T20:32:12.736Z,15.30
2023-04-24T20:34:40.764Z,12.60
2023-04-24T20:37:08.781Z,15.17
2023-04-24T20:39:36.990Z,13.57
2023-04-24T20:42:05.191Z,14.60
2023-04-24T20:44:38.283Z,13.30
2023-04-24T20:47:12.136Z,16.60
2023-04-24T20:49:51.146Z,14.37
2023-04-24T20:52:19.152Z,14.67
2023-04-24T20:54:48.235Z,11.60
2023-04-24T20:57:16.420Z,14.33
2023-04-24T20:59:44.456Z,13.57
2023-04-24T21:02:12.678Z,12.77
2023-04-24T21:04:51.131Z,15.23
2023-04-24T21:07:22.431Z,14.20
2023-04-24T21:09:50.862Z,12.07
2023-04-24T21:19:02.045Z,15.37
2023-04-24T21:21:32.104Z,14.17
2023-04-24T21:24:19.489Z,49.00
2023-04-24T21:26:47.783Z,148.83
2023-04-24T21:29:35.881Z,71.80
2023-04-24T21:32:04.342Z,35.03
2023-04-24T21:34:32.415Z,16.63
2023-04-24T21:37:01.914Z,17.40
2023-04-24T21:39:29.978Z,20.27
2023-04-24T21:41:58.437Z,14.90
2023-04-24T21:44:27.114Z,33.43
2023-04-24T21:46:55.813Z,26.63
2023-04-24T21:49:23.855Z,20.03
2023-04-24T21:51:51.987Z,28.17
2023-04-24T21:54:51.173Z,17.97
2023-04-24T21:57:19.190Z,17.83
2023-04-24T21:59:47.399Z,17.63
2023-04-24T22:02:15.727Z,16.30
2023-04-24T22:04:43.869Z,18.33
2023-04-24T22:07:12.193Z,22.10
2023-04-24T22:09:41.825Z,19.53
2023-04-24T22:12:09.887Z,23.20
2023-04-24T22:14:38.132Z,17.70
2023-04-24T22:17:06.086Z,19.83
2023-04-24T22:19:34.203Z,17.53
2023-04-24T22:22:02.298Z,18.63
2023-04-24T22:24:30.826Z,20.13
2023-04-24T22:27:00.474Z,22.07
2023-04-24T22:29:28.429Z,23.87
2023-04-24T22:31:57.792Z,21.17
2023-04-24T22:34:25.779Z,19.27
2023-04-24T22:36:53.775Z,18.70
2023-04-24T22:39:21.746Z,16.30
2023-04-24T22:41:50.034Z,19.57
2023-04-24T22:44:19.381Z,21.43
2023-04-24T22:46:47.640Z,18.47
2023-04-24T22:49:16.329Z,18.33
2023-04-24T22:51:45.349Z,18.93
2023-04-24T22:54:13.344Z,16.70
2023-04-24T22:56:41.569Z,18.27
2023-04-24T22:59:09.639Z,16.83
2023-04-24T23:01:38.941Z,18.80
2023-04-24T23:04:07.206Z,20.67
2023-04-24T23:06:35.221Z,21.97
2023-04-24T23:09:03.164Z,19.13
2023-04-24T23:11:31.090Z,20.67
2023-04-24T23:13:59.036Z,21.07
2023-04-24T23:16:27.002Z,23.40
2023-04-24T23:18:56.387Z,18.80
2023-04-24T23:21:24.303Z,18.97
2023-04-24T23:23:52.820Z,19.23
2023-04-24T23:26:20.944Z,21.47
2023-04-24T23:28:48.957Z,23.13
2023-04-24T23:31:16.953Z,24.90
2023-04-24T23:33:44.972Z,22.93
2023-04-24T23:36:15.508Z,21.87
2023-04-24T23:38:50.010Z,19.67
2023-04-24T23:41:18.881Z,22.53
2023-04-24T23:43:47.073Z,19.67
2023-04-24T23:46:15.450Z,21.97
2023-04-24T23:48:43.460Z,20.60
2023-04-24T23:51:12.091Z,20.70
2023-04-24T23:53:41.544Z,20.97
2023-04-24T23:56:09.486Z,22.87
2023-04-24T23:58:37.646Z,23.57
